createdAt,value
2024-04-06T00:00:17.436Z,13.50
2024-04-06T00:03:05.438Z,13.50
2024-04-06T00:05:32.979Z,13.50
2024-04-06T00:08:09.622Z,13.50
2024-04-06T00:10:41.328Z,13.50
2024-04-06T00:13:08.801Z,13.50
2024-04-06T00:15:36.334Z,13.50
2024-04-06T00:18:04.271Z,13.50
2024-04-06T00:20:32.184Z,13.50
2024-04-06T00:22:59.753Z,13.50
2024-04-06T00:25:27.367Z,13.40
2024-04-06T00:27:55.139Z,13.40
2024-04-06T00:30:22.610Z,13.40
2024-04-06T00:32:50.084Z,13.40
2024-04-06T00:35:17.762Z,13.38
2024-04-06T00:37:45.819Z,13.34
2024-04-06T00:40:13.412Z,13.30
2024-04-06T00:42:41.444Z,13.30
2024-04-06T00:45:09.682Z,13.30
2024-04-06T00:47:37.273Z,13.30
2024-04-06T00:50:09.870Z,13.30
2024-04-06T00:52:38.936Z,13.30
2024-04-06T00:55:07.160Z,13.30
2024-04-06T00:57:35.637Z,13.30
2024-04-06T01:00:03.920Z,13.30
2024-04-06T01:02:31.627Z,13.30
2024-04-06T01:04:59.259Z,13.30
2024-04-06T01:07:28.861Z,13.20
2024-04-06T01:09:56.505Z,13.20
2024-04-06T01:12:24.005Z,13.20
2024-04-06T01:14:51.525Z,13.20
2024-04-06T01:17:19.011Z,13.20
2024-04-06T01:19:48.136Z,13.20
2024-04-06T01:22:15.694Z,13.20
2024-04-06T01:24:44.851Z,13.20
2024-04-06T01:27:12.444Z,13.20
2024-04-06T01:29:40.334Z,13.20
2024-04-06T01:32:07.927Z,13.20
2024-04-06T01:34:37.676Z,13.20
2024-04-06T01:37:08.134Z,13.20
2024-04-06T01:39:36.234Z,13.18
2024-04-06T01:42:04.174Z,13.14
2024-04-06T01:44:31.751Z,13.10
2024-04-06T01:46:59.254Z,13.10
2024-04-06T01:49:27.499Z,13.10
2024-04-06T01:51:55.030Z,13.10
2024-04-06T01:54:22.497Z,13.10
2024-04-06T01:56:51.414Z,13.08
2024-04-06T01:59:19.457Z,13.06
2024-04-06T02:01:46.916Z,13.02
2024-04-06T02:04:14.431Z,13.04
2024-04-06T02:06:41.943Z,13.00
2024-04-06T02:09:09.746Z,13.00
2024-04-06T02:11:37.215Z,13.02
2024-04-06T02:14:04.696Z,13.00
2024-04-06T02:16:32.178Z,13.00
2024-04-06T02:18:59.669Z,13.04
2024-04-06T02:21:27.299Z,13.06
2024-04-06T02:23:55.108Z,13.10
2024-04-06T02:26:22.623Z,13.10
2024-04-06T02:28:50.153Z,13.10
2024-04-06T02:31:18.139Z,13.08
2024-04-06T02:33:45.617Z,13.06
2024-04-06T02:36:13.100Z,13.00
2024-04-06T02:38:40.671Z,13.00
2024-04-06T02:41:08.180Z,13.00
2024-04-06T02:43:35.674Z,13.00
2024-04-06T02:46:03.805Z,12.98
2024-04-06T02:48:32.721Z,12.98
2024-04-06T02:51:00.337Z,12.96
2024-04-06T02:53:27.892Z,12.90
2024-04-06T02:55:57.177Z,12.92
2024-04-06T02:58:24.708Z,12.96
2024-04-06T03:00:52.441Z,13.00
2024-04-06T03:03:20.108Z,13.00
2024-04-06T03:05:48.327Z,13.00
2024-04-06T03:08:15.802Z,13.00
2024-04-06T03:10:43.374Z,13.00
2024-04-06T03:13:10.887Z,13.00
2024-04-06T03:15:38.623Z,13.00
2024-04-06T03:18:06.121Z,13.00
2024-04-06T03:20:33.781Z,13.00
2024-04-06T03:23:03.780Z,13.00
2024-04-06T03:25:33.907Z,13.00
2024-04-06T03:28:01.600Z,13.00
2024-04-06T03:30:29.402Z,13.00
2024-04-06T03:32:57.018Z,13.00
2024-04-06T03:35:25.132Z,13.00
2024-04-06T03:37:52.683Z,13.00
2024-04-06T03:40:20.524Z,13.00
2024-04-06T03:42:58.732Z,13.00
2024-04-06T03:45:27.768Z,13.00
2024-04-06T03:47:55.526Z,13.00
2024-04-06T03:50:23.375Z,13.00
2024-04-06T03:52:51.213Z,13.00
2024-04-06T03:55:18.863Z,13.00
2024-04-06T03:57:46.553Z,13.00
2024-04-06T04:00:16.817Z,12.94
2024-04-06T04:02:44.315Z,12.90
2024-04-06T04:05:11.951Z,12.90
2024-04-06T04:07:39.448Z,12.90
2024-04-06T04:10:08.043Z,12.90
2024-04-06T04:12:35.585Z,12.80
2024-04-06T04:15:11.498Z,12.80
2024-04-06T04:17:39.892Z,12.80
2024-04-06T04:20:09.611Z,12.76
2024-04-06T04:22:37.321Z,12.70
2024-04-06T04:25:05.303Z,12.70
2024-04-06T04:27:35.592Z,12.70
2024-04-06T04:30:03.491Z,12.62
2024-04-06T04:32:31.028Z,12.62
2024-04-06T04:34:58.635Z,12.60
2024-04-06T04:37:26.232Z,12.60
2024-04-06T04:39:53.750Z,12.60
2024-04-06T04:42:21.280Z,12.60
2024-04-06T04:47:17.259Z,12.60
2024-04-06T04:49:44.945Z,12.60
2024-04-06T04:52:12.403Z,12.60
2024-04-06T04:54:41.052Z,12.60
2024-04-06T04:57:08.581Z,12.60
2024-04-06T04:59:36.066Z,12.62
2024-04-06T05:02:03.732Z,12.60
2024-04-06T05:04:31.231Z,12.60
2024-04-06T05:06:58.740Z,12.62
2024-04-06T05:09:26.566Z,12.64
2024-04-06T05:11:54.174Z,12.70
2024-04-06T05:14:21.784Z,12.70
2024-04-06T05:16:49.753Z,12.70
2024-04-06T05:19:17.329Z,12.80
2024-04-06T05:21:44.954Z,12.80
2024-04-06T05:24:13.622Z,12.82
2024-04-06T05:26:45.926Z,12.90
2024-04-06T05:29:13.427Z,12.90
2024-04-06T05:31:40.978Z,13.00
2024-04-06T05:34:08.510Z,13.08
2024-04-06T05:36:36.080Z,13.26
2024-04-06T05:39:05.295Z,13.50
2024-04-06T05:41:33.034Z,13.60
2024-04-06T05:44:03.308Z,13.80
2024-04-06T05:46:33.287Z,13.94
2024-04-06T05:49:01.520Z,14.16
2024-04-06T05:51:30.365Z,14.32
2024-04-06T05:53:57.833Z,14.40
2024-04-06T05:56:25.483Z,14.40
2024-04-06T05:58:53.313Z,14.42
2024-04-06T06:01:20.878Z,14.70
2024-04-06T06:03:48.792Z,14.78
2024-04-06T06:06:16.270Z,14.80
2024-04-06T06:08:43.793Z,14.72
2024-04-06T06:11:11.556Z,14.66
2024-04-06T06:13:39.103Z,14.66
2024-04-06T06:16:07.063Z,14.60
2024-04-06T06:18:34.638Z,14.50
2024-04-06T06:21:08.252Z,14.52
2024-04-06T06:23:36.172Z,14.50
2024-04-06T06:26:03.893Z,14.58
2024-04-06T06:28:31.957Z,14.80
2024-04-06T06:31:01.136Z,15.18
2024-04-06T06:33:28.652Z,15.76
2024-04-06T06:38:27.951Z,16.38
2024-04-06T06:40:55.513Z,16.30
2024-04-06T06:43:23.089Z,16.38
2024-04-06T06:45:50.612Z,16.70
2024-04-06T06:48:18.089Z,16.70
2024-04-06T06:50:45.812Z,16.70
2024-04-06T06:53:13.310Z,16.50
2024-04-06T06:55:41.169Z,16.38
2024-04-06T06:58:08.675Z,16.20
2024-04-06T07:00:37.206Z,16.08
2024-04-06T07:03:05.294Z,16.00
2024-04-06T07:05:32.820Z,16.00
2024-04-06T07:08:00.599Z,16.00
2024-04-06T07:10:28.094Z,16.00
2024-04-06T07:12:55.613Z,16.10
2024-04-06T07:15:23.255Z,16.20
2024-04-06T07:17:51.299Z,16.20
2024-04-06T07:20:18.940Z,16.76
2024-04-06T07:22:46.444Z,17.02
2024-04-06T07:25:14.133Z,17.90
2024-04-06T07:27:41.774Z,18.34
2024-04-06T07:30:10.038Z,19.30
2024-04-06T07:32:38.417Z,18.90
2024-04-06T07:35:10.805Z,18.68
2024-04-06T07:37:38.472Z,18.40
2024-04-06T07:40:07.025Z,18.10
2024-04-06T07:42:34.692Z,18.18
2024-04-06T07:45:02.236Z,17.86
2024-04-06T07:47:29.856Z,17.80
2024-04-06T07:49:57.514Z,17.50
2024-04-06T07:52:25.131Z,17.50
2024-04-06T07:54:52.880Z,17.40
2024-04-06T07:57:20.368Z,17.34
2024-04-06T07:59:48.711Z,17.34
2024-04-06T08:02:17.354Z,17.20
2024-04-06T08:04:45.941Z,17.10
2024-04-06T08:07:13.687Z,17.00
2024-04-06T08:09:41.217Z,17.00
2024-04-06T08:12:08.908Z,17.00
2024-04-06T08:14:36.451Z,16.90
2024-04-06T08:17:04.098Z,16.80
2024-04-06T08:19:32.333Z,16.80
2024-04-06T08:22:01.250Z,16.80
2024-04-06T08:24:28.859Z,16.80
2024-04-06T08:26:56.913Z,16.80
2024-04-06T08:29:24.495Z,16.80
2024-04-06T08:31:52.218Z,16.80
2024-04-06T08:34:19.881Z,16.90
2024-04-06T08:36:47.481Z,17.06
2024-04-06T08:39:14.983Z,17.00
2024-04-06T08:41:44.713Z,17.00
2024-04-06T08:44:14.276Z,17.08
2024-04-06T08:46:42.346Z,17.00
2024-04-06T08:49:13.400Z,17.00
2024-04-06T08:51:42.080Z,17.06
2024-04-06T08:54:09.948Z,17.20
2024-04-06T08:56:37.546Z,17.20
2024-04-06T08:59:05.243Z,17.10
2024-04-06T09:01:32.719Z,17.08
2024-04-06T09:04:00.183Z,17.06
2024-04-06T09:06:28.080Z,17.00
2024-04-06T09:08:55.693Z,17.10
2024-04-06T09:11:24.580Z,17.12
2024-04-06T09:13:52.069Z,17.10
2024-04-06T09:16:21.312Z,17.20
2024-04-06T09:18:48.804Z,17.08
2024-04-06T09:21:18.243Z,17.00
2024-04-06T09:23:50.367Z,16.98
2024-04-06T09:26:25.903Z,17.00
2024-04-06T09:28:55.315Z,16.96
2024-04-06T09:31:24.443Z,17.10
2024-04-06T09:33:55.338Z,17.10
2024-04-06T09:36:23.410Z,17.20
2024-04-06T09:38:53.683Z,17.30
2024-04-06T09:41:22.838Z,17.30
2024-04-06T09:43:53.559Z,17.30
2024-04-06T09:46:21.913Z,17.40
2024-04-06T09:48:49.388Z,17.50
2024-04-06T09:51:17.814Z,17.52
2024-04-06T09:53:45.568Z,17.60
2024-04-06T09:56:13.143Z,17.60
2024-04-06T09:58:48.475Z,17.60
2024-04-06T10:01:18.494Z,17.60
2024-04-06T10:03:48.926Z,17.60
2024-04-06T10:06:22.740Z,17.70
2024-04-06T10:08:58.255Z,17.68
2024-04-06T10:11:28.792Z,17.60
2024-04-06T10:14:04.315Z,17.60
2024-04-06T10:16:36.992Z,17.70
2024-04-06T10:19:05.089Z,17.70
2024-04-06T10:21:35.994Z,17.70
2024-04-06T10:24:14.155Z,17.70
2024-04-06T10:26:50.250Z,17.60
2024-04-06T10:29:18.176Z,17.70
2024-04-06T10:31:47.688Z,17.76
2024-04-06T10:34:15.672Z,17.80
2024-04-06T10:36:44.206Z,17.80
2024-04-06T10:39:12.552Z,17.90
2024-04-06T10:41:43.607Z,18.00
2024-04-06T10:44:12.214Z,18.00
2024-04-06T10:46:40.327Z,18.00
2024-04-06T10:49:14.216Z,18.00
2024-04-06T10:51:42.464Z,18.00
2024-04-06T10:54:10.240Z,17.90
2024-04-06T10:56:38.136Z,18.00
2024-04-06T10:59:06.486Z,18.00
2024-04-06T11:01:35.998Z,18.00
2024-04-06T11:04:06.120Z,17.90
2024-04-06T11:06:36.355Z,17.90
2024-04-06T11:09:11.175Z,17.90
2024-04-06T11:11:39.638Z,17.90
2024-04-06T11:14:09.974Z,18.00
2024-04-06T11:16:43.150Z,18.00
2024-04-06T11:19:14.188Z,18.00
2024-04-06T11:21:41.720Z,18.00
2024-04-06T11:24:09.943Z,18.02
2024-04-06T11:26:37.686Z,18.10
2024-04-06T11:29:05.307Z,18.10
2024-04-06T11:31:33.954Z,18.10
2024-04-06T11:34:01.427Z,18.28
2024-04-06T11:36:32.041Z,18.26
2024-04-06T11:39:00.189Z,18.40
2024-04-06T11:41:28.136Z,18.50
2024-04-06T11:43:55.648Z,18.50
2024-04-06T11:46:23.231Z,18.50
2024-04-06T11:48:50.793Z,18.50
2024-04-06T11:51:19.277Z,18.50
2024-04-06T11:53:49.431Z,18.60
2024-04-06T11:56:18.874Z,18.68
2024-04-06T11:58:46.605Z,18.70
2024-04-06T12:01:14.281Z,18.80
2024-04-06T12:03:41.860Z,18.80
2024-04-06T12:06:12.475Z,18.86
2024-04-06T12:08:41.219Z,18.90
2024-04-06T12:11:08.637Z,19.10
2024-04-06T12:13:36.094Z,19.20
2024-04-06T12:16:04.295Z,19.30
2024-04-06T12:18:31.793Z,19.40
2024-04-06T12:20:59.456Z,19.42
2024-04-06T12:23:28.700Z,19.40
2024-04-06T12:25:57.191Z,19.40
2024-04-06T12:28:25.279Z,19.50
2024-04-06T12:30:52.806Z,19.60
2024-04-06T12:33:20.324Z,19.70
2024-04-06T12:35:49.591Z,19.74
2024-04-06T12:38:17.147Z,19.90
2024-04-06T12:40:45.163Z,20.00
2024-04-06T12:43:12.890Z,20.10
2024-04-06T12:45:40.456Z,20.20
2024-04-06T12:48:08.270Z,20.30
2024-04-06T12:50:35.847Z,20.50
2024-04-06T12:53:03.883Z,20.60
2024-04-06T12:55:31.522Z,20.76
2024-04-06T12:57:59.040Z,20.90
2024-04-06T13:00:26.654Z,21.00
2024-04-06T13:02:54.234Z,21.20
2024-04-06T13:05:22.056Z,21.40
2024-04-06T13:07:51.336Z,21.50
2024-04-06T13:10:19.191Z,21.80
2024-04-06T13:12:47.943Z,21.90
2024-04-06T13:15:15.789Z,21.80
2024-04-06T13:17:45.212Z,21.60
2024-04-06T13:20:16.406Z,21.40
2024-04-06T13:22:49.420Z,21.44
2024-04-06T13:25:17.403Z,21.60
2024-04-06T13:27:44.912Z,21.80
2024-04-06T13:30:12.943Z,21.90
2024-04-06T13:32:40.797Z,21.90
2024-04-06T13:35:08.335Z,22.06
2024-04-06T13:37:36.232Z,22.10
2024-04-06T13:40:12.046Z,22.20
2024-04-06T13:42:40.419Z,22.28
2024-04-06T13:45:16.069Z,22.40
2024-04-06T13:47:48.493Z,22.50
2024-04-06T13:50:16.921Z,22.40
2024-04-06T13:52:44.485Z,22.50
2024-04-06T13:55:12.726Z,22.40
2024-04-06T13:57:40.524Z,22.20
2024-04-06T14:00:09.311Z,22.10
2024-04-06T14:02:39.620Z,21.82
2024-04-06T14:05:07.234Z,21.76
2024-04-06T14:07:34.788Z,21.92
2024-04-06T14:10:02.369Z,22.50
2024-04-06T14:12:29.889Z,22.96
2024-04-06T14:14:57.363Z,24.30
2024-04-06T14:17:25.319Z,25.56
2024-04-06T14:19:53.130Z,25.36
2024-04-06T14:22:21.088Z,24.68
2024-04-06T14:24:50.065Z,24.12
2024-04-06T14:27:17.580Z,23.64
2024-04-06T14:29:45.672Z,23.08
2024-04-06T14:32:13.202Z,22.70
2024-04-06T14:34:41.094Z,22.40
2024-04-06T14:37:08.671Z,22.12
2024-04-06T14:39:36.198Z,21.90
2024-04-06T14:42:04.132Z,21.70
2024-04-06T14:44:31.915Z,21.48
2024-04-06T14:47:02.452Z,21.36
2024-04-06T14:49:29.969Z,21.20
2024-04-06T14:51:57.440Z,21.20
2024-04-06T14:54:24.960Z,21.06
2024-04-06T14:56:52.677Z,20.90
2024-04-06T14:59:20.369Z,20.90
2024-04-06T15:01:47.985Z,20.80
2024-04-06T15:04:18.162Z,20.72
2024-04-06T15:06:45.956Z,20.60
2024-04-06T15:09:13.470Z,20.50
2024-04-06T15:11:41.382Z,20.40
2024-04-06T15:14:09.125Z,20.40
2024-04-06T15:16:37.512Z,20.40
2024-04-06T15:19:05.511Z,20.30
2024-04-06T15:21:33.069Z,20.30
2024-04-06T15:24:00.655Z,20.26
2024-04-06T15:26:28.344Z,20.20
2024-04-06T15:28:57.247Z,20.10
2024-04-06T15:31:24.820Z,20.00
2024-04-06T15:33:52.405Z,20.00
2024-04-06T15:36:19.963Z,19.90
2024-04-06T15:38:49.407Z,19.90
2024-04-06T15:41:16.951Z,19.80
2024-04-06T15:43:44.748Z,19.80
2024-04-06T15:46:12.345Z,19.80
2024-04-06T15:48:40.035Z,19.70
2024-04-06T15:51:07.574Z,19.70
2024-04-06T15:53:39.871Z,19.60
2024-04-06T15:56:08.460Z,19.60
2024-04-06T15:58:36.961Z,19.60
2024-04-06T16:01:04.507Z,19.50
2024-04-06T16:03:32.132Z,19.40
2024-04-06T16:06:00.251Z,19.40
2024-04-06T16:08:27.747Z,19.40
2024-04-06T16:10:55.323Z,19.32
2024-04-06T16:13:22.868Z,19.30
2024-04-06T16:15:50.421Z,19.30
2024-04-06T16:18:18.239Z,19.20
2024-04-06T16:20:45.835Z,19.12
2024-04-06T16:23:13.422Z,19.10
2024-04-06T16:25:43.107Z,19.10
2024-04-06T16:28:11.709Z,19.00
2024-04-06T16:33:49.013Z,19.16
2024-04-06T16:36:16.447Z,19.20
2024-04-06T16:38:44.018Z,19.20
2024-04-06T16:41:13.188Z,19.10
2024-04-06T16:43:40.655Z,19.04
2024-04-06T16:46:08.183Z,19.00
2024-04-06T16:48:35.847Z,18.90
2024-04-06T16:51:04.046Z,18.86
2024-04-06T16:53:31.543Z,18.80
2024-04-06T16:55:59.151Z,18.70
2024-04-06T16:58:26.763Z,18.68
2024-04-06T17:00:54.542Z,18.60
2024-04-06T17:03:22.637Z,18.50
2024-04-06T17:05:50.293Z,18.44
2024-04-06T17:08:19.137Z,18.40
2024-04-06T17:10:46.781Z,18.30
2024-04-06T17:13:14.308Z,18.30
2024-04-06T17:15:43.640Z,18.20
2024-04-06T17:18:11.555Z,18.10
2024-04-06T17:20:39.157Z,18.10
2024-04-06T17:23:12.272Z,18.00
2024-04-06T17:25:39.926Z,17.98
2024-04-06T17:28:07.488Z,17.90
2024-04-06T17:30:35.227Z,17.80
2024-04-06T17:33:03.811Z,17.80
2024-04-06T17:35:31.376Z,17.70
2024-04-06T17:38:01.761Z,17.70
2024-04-06T17:40:29.428Z,17.60
2024-04-06T17:42:56.977Z,17.58
2024-04-06T17:45:24.851Z,17.50
2024-04-06T17:47:52.436Z,17.40
2024-04-06T17:50:21.306Z,17.40
2024-04-06T17:52:48.966Z,17.34
2024-04-06T17:55:17.248Z,17.30
2024-04-06T17:57:44.823Z,17.22
2024-04-06T18:00:13.824Z,17.20
2024-04-06T18:02:42.803Z,17.20
2024-04-06T18:05:10.595Z,17.10
2024-04-06T18:07:38.220Z,17.10
2024-04-06T18:10:08.832Z,17.00
2024-04-06T18:12:36.732Z,17.00
2024-04-06T18:15:06.127Z,16.90
2024-04-06T18:17:33.660Z,16.90
2024-04-06T18:20:01.579Z,16.80
2024-04-06T18:22:29.597Z,16.70
2024-04-06T18:24:57.617Z,16.60
2024-04-06T18:27:27.308Z,16.50
2024-04-06T18:29:54.832Z,16.48
2024-04-06T18:32:23.041Z,16.40
2024-04-06T18:34:51.972Z,16.38
2024-04-06T18:37:19.439Z,16.30
2024-04-06T18:39:50.181Z,16.20
2024-04-06T18:42:17.754Z,16.10
2024-04-06T18:44:45.329Z,16.00
2024-04-06T18:47:12.971Z,16.00
2024-04-06T18:49:40.926Z,15.90
2024-04-06T18:52:08.525Z,15.80
2024-04-06T18:54:36.060Z,15.70
2024-04-06T18:57:03.893Z,15.70
2024-04-06T18:59:31.479Z,15.60
2024-04-06T19:01:59.066Z,15.60
2024-04-06T19:04:28.144Z,15.50
2024-04-06T19:06:56.234Z,15.48
2024-04-06T19:09:23.956Z,15.40
2024-04-06T19:11:51.837Z,15.30
2024-04-06T19:14:19.311Z,15.20
2024-04-06T19:16:47.038Z,15.10
2024-04-06T19:19:14.522Z,15.00
2024-04-06T19:21:43.965Z,15.00
2024-04-06T19:24:11.550Z,14.92
2024-04-06T19:26:40.330Z,14.90
2024-04-06T19:29:07.903Z,14.82
2024-04-06T19:31:36.406Z,14.80
2024-04-06T19:34:04.810Z,14.80
2024-04-06T19:36:32.930Z,14.80
2024-04-06T19:39:00.496Z,14.80
2024-04-06T19:41:28.342Z,14.72
2024-04-06T19:43:56.009Z,14.68
2024-04-06T19:46:23.581Z,14.60
2024-04-06T19:48:51.329Z,14.50
2024-04-06T19:51:18.974Z,14.50
2024-04-06T19:53:47.049Z,14.50
2024-04-06T19:56:14.634Z,14.40
2024-04-06T19:58:42.328Z,14.40
2024-04-06T20:01:10.617Z,14.40
2024-04-06T20:03:38.595Z,14.40
2024-04-06T20:06:09.386Z,14.40
2024-04-06T20:08:37.353Z,14.40
2024-04-06T20:11:05.765Z,14.40
2024-04-06T20:13:34.001Z,14.34
2024-04-06T20:16:01.573Z,14.30
2024-04-06T20:18:30.259Z,14.20
2024-04-06T20:20:58.114Z,14.20
2024-04-06T20:23:44.264Z,14.10
2024-04-06T20:26:14.969Z,14.02
2024-04-06T20:28:43.580Z,14.00
2024-04-06T20:31:12.374Z,14.00
2024-04-06T20:33:41.389Z,13.90
2024-04-06T20:36:09.321Z,13.90
2024-04-06T20:38:36.939Z,13.88
2024-04-06T20:41:04.909Z,13.80
2024-04-06T20:43:33.108Z,13.80
2024-04-06T20:46:00.852Z,13.70
2024-04-06T20:48:28.614Z,13.70
2024-04-06T20:50:56.265Z,13.60
2024-04-06T20:53:25.224Z,13.60
2024-04-06T20:55:52.825Z,13.50
2024-04-06T20:58:20.729Z,13.50
2024-04-06T21:00:49.418Z,13.50
2024-04-06T21:03:17.000Z,13.50
2024-04-06T21:05:44.568Z,13.46
2024-04-06T21:08:12.808Z,13.40
2024-04-06T21:10:40.610Z,13.40
2024-04-06T21:13:08.294Z,13.30
2024-04-06T21:15:38.673Z,13.30
2024-04-06T21:18:06.569Z,13.22
2024-04-06T21:20:34.500Z,13.20
2024-04-06T21:23:03.348Z,13.20
2024-04-06T21:25:30.939Z,13.10
2024-04-06T21:27:58.833Z,13.10
2024-04-06T21:30:26.684Z,13.10
2024-04-06T21:32:54.451Z,13.00
2024-04-06T21:35:22.146Z,13.00
2024-04-06T21:37:50.496Z,13.00
2024-04-06T21:40:18.326Z,12.94
2024-04-06T21:42:45.894Z,12.90
2024-04-06T21:45:13.529Z,12.90
2024-04-06T21:47:41.319Z,12.90
2024-04-06T21:50:09.669Z,12.90
2024-04-06T21:52:37.292Z,12.82
2024-04-06T21:55:05.675Z,12.88
2024-04-06T21:57:33.230Z,12.80
2024-04-06T22:00:00.722Z,12.88
2024-04-06T22:02:28.419Z,12.90
2024-04-06T22:04:55.968Z,12.80
2024-04-06T22:07:23.990Z,12.80
2024-04-06T22:09:51.548Z,12.70
2024-04-06T22:12:19.056Z,12.70
2024-04-06T22:14:46.738Z,12.70
2024-04-06T22:17:15.120Z,12.70
2024-04-06T22:19:42.990Z,12.70
2024-04-06T22:22:10.692Z,12.70
2024-04-06T22:24:38.275Z,12.70
2024-04-06T22:27:05.768Z,12.60
2024-04-06T22:29:33.329Z,12.60
2024-04-06T22:32:01.368Z,12.60
2024-04-06T22:34:29.082Z,12.60
2024-04-06T22:36:56.848Z,12.52
2024-04-06T22:39:24.393Z,12.50
2024-04-06T22:41:52.022Z,12.50
2024-04-06T22:44:21.319Z,12.42
2024-04-06T22:46:50.026Z,12.40
2024-04-06T22:49:17.612Z,12.40
2024-04-06T22:51:45.269Z,12.30
2024-04-06T22:54:16.172Z,12.30
2024-04-06T22:56:43.946Z,12.20
2024-04-06T22:59:12.686Z,12.20
2024-04-06T23:01:40.180Z,12.20
2024-04-06T23:04:08.003Z,12.14
2024-04-06T23:06:35.748Z,12.10
2024-04-06T23:09:03.396Z,12.10
2024-04-06T23:11:30.936Z,12.02
2024-04-06T23:13:58.402Z,12.00
2024-04-06T23:16:26.027Z,11.94
2024-04-06T23:18:53.512Z,11.90
2024-04-06T23:21:21.641Z,11.90
2024-04-06T23:23:49.141Z,11.90
2024-04-06T23:26:16.966Z,11.80
2024-04-06T23:28:44.549Z,11.80
2024-04-06T23:31:12.258Z,11.80
2024-04-06T23:33:39.798Z,11.80
2024-04-06T23:36:09.333Z,11.80
2024-04-06T23:38:36.992Z,11.74
2024-04-06T23:41:04.568Z,11.70
2024-04-06T23:43:32.169Z,11.78
2024-04-06T23:46:03.587Z,11.72
2024-04-06T23:48:31.638Z,11.70
2024-04-06T23:51:00.740Z,11.70
2024-04-06T23:53:28.267Z,11.60
2024-04-06T23:55:56.292Z,11.60
2024-04-06T23:58:23.842Z,11.60
